Terminal Aerodrome Forecast
Issued by NWS

Home | Current Version | Previous Version | Text Only | Print | Product List | Glossary On
Versions: 1 2 3 4 5 6 7 8 9 10 11 12 13 14 15 16 17 18 19
000
FTUS41 KBOX 250909 AAA
TAFACK
TAF AMD
KACK 250909Z 2509/2606 26012KT P6SM OVC250
     FM251400 32009KT P6SM BKN045
     FM251700 01009KT P6SM BKN025
     FM252100 03010G18KT P6SM VCSH OVC035
     FM260100 03008KT P6SM BKN040=

USA.gov is the U.S. government's official web portal to all federal, state and local government web resources and services.